sensor_id;sensor_type;location;lat;lon;timestamp;P1;durP1;ratioP1;P2;durP2;ratioP2
11131;SDS011;5620;53.570;9.718;2023-05-19T00:02:07;4.38;;;2.58;;
11131;SDS011;5620;53.570;9.718;2023-05-19T00:04:34;5.50;;;3.07;;
11131;SDS011;5620;53.570;9.718;2023-05-19T00:07:01;4.47;;;2.70;;
11131;SDS011;5620;53.570;9.718;2023-05-19T00:09:27;9.90;;;3.25;;
11131;SDS011;5620;53.570;9.718;2023-05-19T00:11:53;4.13;;;2.13;;
11131;SDS011;5620;53.570;9.718;2023-05-19T00:14:20;3.17;;;2.88;;
11131;SDS011;5620;53.570;9.718;2023-05-19T00:16:47;6.40;;;3.03;;
11131;SDS011;5620;53.570;9.718;2023-05-19T00:19:13;3.30;;;2.75;;
11131;SDS011;5620;53.570;9.718;2023-05-19T00:21:38;3.58;;;3.22;;
11131;SDS011;5620;53.570;9.718;2023-05-19T00:24:04;5.70;;;3.17;;
11131;SDS011;5620;53.570;9.718;2023-05-19T00:26:31;7.88;;;2.78;;
11131;SDS011;5620;53.570;9.718;2023-05-19T00:29:00;3.57;;;2.57;;
11131;SDS011;5620;53.570;9.718;2023-05-19T00:31:25;3.25;;;2.50;;
11131;SDS011;5620;53.570;9.718;2023-05-19T00:33:51;4.37;;;2.90;;
11131;SDS011;5620;53.570;9.718;2023-05-19T00:36:16;6.13;;;2.67;;
11131;SDS011;5620;53.570;9.718;2023-05-19T00:38:42;6.73;;;3.10;;
11131;SDS011;5620;53.570;9.718;2023-05-19T00:41:10;4.82;;;3.50;;
11131;SDS011;5620;53.570;9.718;2023-05-19T00:43:37;4.85;;;2.88;;
11131;SDS011;5620;53.570;9.718;2023-05-19T00:46:03;7.65;;;2.83;;
11131;SDS011;5620;53.570;9.718;2023-05-19T00:48:29;7.37;;;2.40;;
11131;SDS011;5620;53.570;9.718;2023-05-19T00:50:56;5.80;;;3.03;;
11131;SDS011;5620;53.570;9.718;2023-05-19T00:53:23;3.90;;;3.22;;
11131;SDS011;5620;53.570;9.718;2023-05-19T00:55:50;9.50;;;2.75;;
11131;SDS011;5620;53.570;9.718;2023-05-19T00:58:16;6.63;;;2.50;;
11131;SDS011;5620;53.570;9.718;2023-05-19T01:00:44;2.08;;;1.77;;
11131;SDS011;5620;53.570;9.718;2023-05-19T01:03:12;8.68;;;2.55;;
11131;SDS011;5620;53.570;9.718;2023-05-19T01:05:42;5.00;;;2.28;;
11131;SDS011;5620;53.570;9.718;2023-05-19T01:08:09;4.75;;;2.65;;
11131;SDS011;5620;53.570;9.718;2023-05-19T01:10:35;5.40;;;2.60;;
11131;SDS011;5620;53.570;9.718;2023-05-19T01:13:02;4.88;;;2.17;;
11131;SDS011;5620;53.570;9.718;2023-05-19T01:15:29;5.05;;;2.83;;
11131;SDS011;5620;53.570;9.718;2023-05-19T01:18:04;3.75;;;2.55;;
11131;SDS011;5620;53.570;9.718;2023-05-19T01:29:27;7.95;;;2.17;;
11131;SDS011;5620;53.570;9.718;2023-05-19T01:31:59;6.15;;;2.20;;
11131;SDS011;5620;53.570;9.718;2023-05-19T01:34:29;7.72;;;2.55;;
11131;SDS011;5620;53.570;9.718;2023-05-19T01:36:59;2.17;;;1.85;;
11131;SDS011;5620;53.570;9.718;2023-05-19T01:39:27;5.65;;;2.50;;
11131;SDS011;5620;53.570;9.718;2023-05-19T01:41:58;2.83;;;2.30;;
11131;SDS011;5620;53.570;9.718;2023-05-19T01:44:25;9.43;;;2.65;;
11131;SDS011;5620;53.570;9.718;2023-05-19T01:46:53;6.53;;;2.55;;
11131;SDS011;5620;53.570;9.718;2023-05-19T01:49:21;4.88;;;2.58;;
11131;SDS011;5620;53.570;9.718;2023-05-19T01:51:48;6.43;;;3.35;;
11131;SDS011;5620;53.570;9.718;2023-05-19T01:54:15;6.85;;;2.60;;
11131;SDS011;5620;53.570;9.718;2023-05-19T01:56:46;4.45;;;2.72;;
11131;SDS011;5620;53.570;9.718;2023-05-19T01:59:41;8.68;;;3.10;;
11131;SDS011;5620;53.570;9.718;2023-05-19T02:02:13;3.55;;;2.78;;
11131;SDS011;5620;53.570;9.718;2023-05-19T02:04:59;7.20;;;2.45;;
11131;SDS011;5620;53.570;9.718;2023-05-19T02:10:25;5.22;;;2.58;;
11131;SDS011;5620;53.570;9.718;2023-05-19T02:12:55;2.88;;;2.38;;
11131;SDS011;5620;53.570;9.718;2023-05-19T02:15:29;6.45;;;3.10;;
11131;SDS011;5620;53.570;9.718;2023-05-19T02:18:04;2.33;;;1.60;;
11131;SDS011;5620;53.570;9.718;2023-05-19T02:20:31;4.65;;;2.60;;
11131;SDS011;5620;53.570;9.718;2023-05-19T02:22:56;5.45;;;2.30;;
11131;SDS011;5620;53.570;9.718;2023-05-19T02:25:24;2.47;;;2.10;;
11131;SDS011;5620;53.570;9.718;2023-05-19T02:27:49;5.77;;;2.20;;
11131;SDS011;5620;53.570;9.718;2023-05-19T02:30:16;4.40;;;2.13;;
11131;SDS011;5620;53.570;9.718;2023-05-19T02:32:43;3.20;;;2.30;;
11131;SDS011;5620;53.570;9.718;2023-05-19T02:35:10;5.63;;;2.67;;
11131;SDS011;5620;53.570;9.718;2023-05-19T02:37:37;5.88;;;2.63;;
11131;SDS011;5620;53.570;9.718;2023-05-19T02:40:04;3.35;;;3.13;;
11131;SDS011;5620;53.570;9.718;2023-05-19T02:42:30;2.97;;;2.40;;
11131;SDS011;5620;53.570;9.718;2023-05-19T02:44:57;9.77;;;2.30;;
11131;SDS011;5620;53.570;9.718;2023-05-19T02:47:25;5.78;;;2.75;;
11131;SDS011;5620;53.570;9.718;2023-05-19T02:49:52;7.40;;;2.85;;
11131;SDS011;5620;53.570;9.718;2023-05-19T02:52:19;9.98;;;2.85;;
11131;SDS011;5620;53.570;9.718;2023-05-19T02:54:46;3.60;;;2.97;;
11131;SDS011;5620;53.570;9.718;2023-05-19T02:57:14;2.30;;;2.08;;
11131;SDS011;5620;53.570;9.718;2023-05-19T02:59:40;6.15;;;3.10;;
11131;SDS011;5620;53.570;9.718;2023-05-19T03:02:06;4.03;;;2.88;;
11131;SDS011;5620;53.570;9.718;2023-05-19T03:04:36;5.53;;;3.42;;
11131;SDS011;5620;53.570;9.718;2023-05-19T03:07:02;7.03;;;2.50;;
11131;SDS011;5620;53.570;9.718;2023-05-19T03:09:29;6.93;;;3.10;;
11131;SDS011;5620;53.570;9.718;2023-05-19T03:11:54;3.78;;;2.10;;
11131;SDS011;5620;53.570;9.718;2023-05-19T03:14:23;5.13;;;2.55;;
11131;SDS011;5620;53.570;9.718;2023-05-19T03:16:49;9.43;;;2.45;;
11131;SDS011;5620;53.570;9.718;2023-05-19T03:19:16;6.43;;;2.65;;
11131;SDS011;5620;53.570;9.718;2023-05-19T03:21:43;4.77;;;3.00;;
11131;SDS011;5620;53.570;9.718;2023-05-19T03:24:10;5.38;;;2.75;;
11131;SDS011;5620;53.570;9.718;2023-05-19T03:26:38;6.30;;;2.83;;
11131;SDS011;5620;53.570;9.718;2023-05-19T03:29:05;3.42;;;3.08;;
11131;SDS011;5620;53.570;9.718;2023-05-19T03:31:30;12.47;;;3.10;;
11131;SDS011;5620;53.570;9.718;2023-05-19T03:33:58;6.03;;;2.95;;
11131;SDS011;5620;53.570;9.718;2023-05-19T03:36:25;5.18;;;3.35;;
11131;SDS011;5620;53.570;9.718;2023-05-19T03:38:52;2.53;;;2.33;;
11131;SDS011;5620;53.570;9.718;2023-05-19T03:41:18;13.20;;;3.17;;
11131;SDS011;5620;53.570;9.718;2023-05-19T03:43:45;3.57;;;2.67;;
11131;SDS011;5620;53.570;9.718;2023-05-19T03:46:12;5.88;;;2.92;;
11131;SDS011;5620;53.570;9.718;2023-05-19T03:48:40;8.15;;;2.95;;
11131;SDS011;5620;53.570;9.718;2023-05-19T03:51:05;5.05;;;2.92;;
11131;SDS011;5620;53.570;9.718;2023-05-19T03:53:34;7.47;;;2.85;;
11131;SDS011;5620;53.570;9.718;2023-05-19T03:55:59;10.63;;;2.53;;
11131;SDS011;5620;53.570;9.718;2023-05-19T03:58:25;6.05;;;2.67;;
11131;SDS011;5620;53.570;9.718;2023-05-19T04:00:52;7.10;;;3.03;;
11131;SDS011;5620;53.570;9.718;2023-05-19T04:03:17;4.17;;;2.97;;
11131;SDS011;5620;53.570;9.718;2023-05-19T04:05:44;3.50;;;2.13;;
11131;SDS011;5620;53.570;9.718;2023-05-19T04:08:11;6.07;;;2.72;;
11131;SDS011;5620;53.570;9.718;2023-05-19T04:10:37;8.63;;;3.17;;
11131;SDS011;5620;53.570;9.718;2023-05-19T04:13:04;6.53;;;2.30;;
11131;SDS011;5620;53.570;9.718;2023-05-19T04:15:31;3.93;;;2.57;;
11131;SDS011;5620;53.570;9.718;2023-05-19T04:17:57;9.90;;;2.58;;
11131;SDS011;5620;53.570;9.718;2023-05-19T04:20:25;6.75;;;3.25;;
11131;SDS011;5620;53.570;9.718;2023-05-19T04:22:50;4.03;;;2.63;;
11131;SDS011;5620;53.570;9.718;2023-05-19T04:25:16;6.60;;;2.70;;
11131;SDS011;5620;53.570;9.718;2023-05-19T04:27:42;3.58;;;2.97;;
11131;SDS011;5620;53.570;9.718;2023-05-19T04:30:10;13.50;;;4.82;;
11131;SDS011;5620;53.570;9.718;2023-05-19T04:32:36;4.80;;;2.63;;
11131;SDS011;5620;53.570;9.718;2023-05-19T04:35:02;4.03;;;2.53;;
11131;SDS011;5620;53.570;9.718;2023-05-19T04:37:29;3.33;;;2.78;;
11131;SDS011;5620;53.570;9.718;2023-05-19T04:39:56;5.38;;;2.92;;
11131;SDS011;5620;53.570;9.718;2023-05-19T04:42:23;10.70;;;3.08;;
11131;SDS011;5620;53.570;9.718;2023-05-19T04:44:51;4.97;;;3.25;;
11131;SDS011;5620;53.570;9.718;2023-05-19T04:47:18;9.05;;;2.88;;
11131;SDS011;5620;53.570;9.718;2023-05-19T04:49:45;5.35;;;2.85;;
11131;SDS011;5620;53.570;9.718;2023-05-19T04:52:13;8.77;;;2.85;;
11131;SDS011;5620;53.570;9.718;2023-05-19T04:54:40;6.78;;;3.13;;
11131;SDS011;5620;53.570;9.718;2023-05-19T04:57:05;3.15;;;2.75;;
11131;SDS011;5620;53.570;9.718;2023-05-19T04:59:31;9.10;;;3.10;;
11131;SDS011;5620;53.570;9.718;2023-05-19T05:01:57;5.05;;;3.28;;
11131;SDS011;5620;53.570;9.718;2023-05-19T05:04:24;6.35;;;2.33;;
11131;SDS011;5620;53.570;9.718;2023-05-19T05:06:49;6.10;;;3.10;;
11131;SDS011;5620;53.570;9.718;2023-05-19T05:09:16;4.10;;;2.95;;
11131;SDS011;5620;53.570;9.718;2023-05-19T05:11:42;5.18;;;2.53;;
11131;SDS011;5620;53.570;9.718;2023-05-19T05:14:09;5.10;;;2.72;;
11131;SDS011;5620;53.570;9.718;2023-05-19T05:16:36;5.03;;;2.97;;
11131;SDS011;5620;53.570;9.718;2023-05-19T05:19:02;7.20;;;3.05;;
11131;SDS011;5620;53.570;9.718;2023-05-19T05:21:29;9.27;;;2.70;;
11131;SDS011;5620;53.570;9.718;2023-05-19T05:23:56;6.60;;;2.87;;
11131;SDS011;5620;53.570;9.718;2023-05-19T05:26:24;7.47;;;5.22;;
11131;SDS011;5620;53.570;9.718;2023-05-19T05:28:57;4.78;;;3.03;;
11131;SDS011;5620;53.570;9.718;2023-05-19T05:31:25;3.47;;;2.63;;
11131;SDS011;5620;53.570;9.718;2023-05-19T05:33:52;8.35;;;3.22;;
11131;SDS011;5620;53.570;9.718;2023-05-19T05:36:20;6.43;;;2.73;;
11131;SDS011;5620;53.570;9.718;2023-05-19T05:38:46;4.32;;;2.88;;
11131;SDS011;5620;53.570;9.718;2023-05-19T05:41:12;7.03;;;3.05;;
11131;SDS011;5620;53.570;9.718;2023-05-19T05:43:39;5.40;;;2.63;;
11131;SDS011;5620;53.570;9.718;2023-05-19T05:46:06;7.35;;;3.70;;
11131;SDS011;5620;53.570;9.718;2023-05-19T05:48:31;4.33;;;2.90;;
11131;SDS011;5620;53.570;9.718;2023-05-19T05:50:59;3.70;;;3.28;;
11131;SDS011;5620;53.570;9.718;2023-05-19T05:53:28;3.13;;;2.90;;
11131;SDS011;5620;53.570;9.718;2023-05-19T05:55:56;8.68;;;3.28;;
11131;SDS011;5620;53.570;9.718;2023-05-19T05:58:22;3.10;;;2.75;;
11131;SDS011;5620;53.570;9.718;2023-05-19T06:00:49;6.90;;;3.80;;
11131;SDS011;5620;53.570;9.718;2023-05-19T06:03:15;3.03;;;2.47;;
11131;SDS011;5620;53.570;9.718;2023-05-19T06:05:41;5.45;;;3.33;;
11131;SDS011;5620;53.570;9.718;2023-05-19T06:08:09;6.13;;;3.15;;
11131;SDS011;5620;53.570;9.718;2023-05-19T06:10:36;6.28;;;3.40;;
11131;SDS011;5620;53.570;9.718;2023-05-19T06:13:02;5.07;;;3.60;;
11131;SDS011;5620;53.570;9.718;2023-05-19T06:15:29;3.77;;;2.73;;
11131;SDS011;5620;53.570;9.718;2023-05-19T06:17:56;5.70;;;3.13;;
11131;SDS011;5620;53.570;9.718;2023-05-19T06:20:21;7.10;;;2.83;;
11131;SDS011;5620;53.570;9.718;2023-05-19T06:22:48;3.17;;;2.55;;
11131;SDS011;5620;53.570;9.718;2023-05-19T06:25:16;5.13;;;3.30;;
11131;SDS011;5620;53.570;9.718;2023-05-19T06:27:41;5.88;;;3.13;;
11131;SDS011;5620;53.570;9.718;2023-05-19T06:30:10;5.20;;;3.45;;
11131;SDS011;5620;53.570;9.718;2023-05-19T06:32:37;8.40;;;2.92;;
11131;SDS011;5620;53.570;9.718;2023-05-19T06:35:04;5.45;;;3.10;;
11131;SDS011;5620;53.570;9.718;2023-05-19T06:37:31;4.53;;;2.77;;
11131;SDS011;5620;53.570;9.718;2023-05-19T06:39:58;6.00;;;2.67;;
11131;SDS011;5620;53.570;9.718;2023-05-19T06:42:23;13.68;;;3.67;;
11131;SDS011;5620;53.570;9.718;2023-05-19T06:44:51;9.10;;;3.67;;
11131;SDS011;5620;53.570;9.718;2023-05-19T06:47:17;10.20;;;4.43;;
11131;SDS011;5620;53.570;9.718;2023-05-19T06:49:45;6.28;;;3.03;;
11131;SDS011;5620;53.570;9.718;2023-05-19T06:52:11;4.60;;;3.22;;
11131;SDS011;5620;53.570;9.718;2023-05-19T06:54:37;7.80;;;2.60;;
11131;SDS011;5620;53.570;9.718;2023-05-19T06:57:05;8.10;;;2.60;;
11131;SDS011;5620;53.570;9.718;2023-05-19T06:59:32;9.70;;;2.92;;
11131;SDS011;5620;53.570;9.718;2023-05-19T07:02:01;6.33;;;3.27;;
11131;SDS011;5620;53.570;9.718;2023-05-19T07:04:26;5.97;;;3.35;;
11131;SDS011;5620;53.570;9.718;2023-05-19T07:06:55;4.23;;;2.13;;
11131;SDS011;5620;53.570;9.718;2023-05-19T07:09:23;4.47;;;3.28;;
11131;SDS011;5620;53.570;9.718;2023-05-19T07:11:52;7.82;;;3.00;;
11131;SDS011;5620;53.570;9.718;2023-05-19T07:14:17;11.63;;;3.40;;
11131;SDS011;5620;53.570;9.718;2023-05-19T07:16:45;3.97;;;2.60;;
11131;SDS011;5620;53.570;9.718;2023-05-19T07:19:12;9.10;;;3.05;;
11131;SDS011;5620;53.570;9.718;2023-05-19T07:21:40;6.90;;;2.97;;
11131;SDS011;5620;53.570;9.718;2023-05-19T07:24:07;7.57;;;2.80;;
11131;SDS011;5620;53.570;9.718;2023-05-19T07:26:32;6.05;;;2.53;;
11131;SDS011;5620;53.570;9.718;2023-05-19T07:28:59;5.27;;;2.20;;
11131;SDS011;5620;53.570;9.718;2023-05-19T07:31:24;5.78;;;3.53;;
11131;SDS011;5620;53.570;9.718;2023-05-19T07:33:51;8.47;;;2.50;;
11131;SDS011;5620;53.570;9.718;2023-05-19T07:36:18;9.85;;;2.50;;
11131;SDS011;5620;53.570;9.718;2023-05-19T07:38:44;6.93;;;2.30;;
11131;SDS011;5620;53.570;9.718;2023-05-19T07:41:11;9.03;;;2.50;;
11131;SDS011;5620;53.570;9.718;2023-05-19T07:43:39;5.45;;;2.20;;
11131;SDS011;5620;53.570;9.718;2023-05-19T07:46:06;7.93;;;2.30;;
11131;SDS011;5620;53.570;9.718;2023-05-19T07:48:33;8.57;;;2.00;;
11131;SDS011;5620;53.570;9.718;2023-05-19T07:51:00;7.97;;;2.58;;
11131;SDS011;5620;53.570;9.718;2023-05-19T07:53:27;6.37;;;2.10;;
11131;SDS011;5620;53.570;9.718;2023-05-19T07:55:54;8.75;;;2.90;;
11131;SDS011;5620;53.570;9.718;2023-05-19T07:58:21;10.07;;;2.50;;
11131;SDS011;5620;53.570;9.718;2023-05-19T08:00:46;8.50;;;2.50;;
11131;SDS011;5620;53.570;9.718;2023-05-19T08:03:13;3.03;;;1.93;;
11131;SDS011;5620;53.570;9.718;2023-05-19T08:05:39;8.85;;;2.30;;
11131;SDS011;5620;53.570;9.718;2023-05-19T08:08:06;5.27;;;2.20;;
11131;SDS011;5620;53.570;9.718;2023-05-19T08:10:31;5.22;;;2.22;;
11131;SDS011;5620;53.570;9.718;2023-05-19T08:12:58;4.32;;;1.95;;
11131;SDS011;5620;53.570;9.718;2023-05-19T08:15:25;4.23;;;1.97;;
11131;SDS011;5620;53.570;9.718;2023-05-19T08:17:52;4.05;;;1.88;;
11131;SDS011;5620;53.570;9.718;2023-05-19T08:20:18;10.53;;;1.87;;
11131;SDS011;5620;53.570;9.718;2023-05-19T08:22:43;8.45;;;1.60;;
11131;SDS011;5620;53.570;9.718;2023-05-19T08:25:09;5.33;;;1.60;;
11131;SDS011;5620;53.570;9.718;2023-05-19T08:27:36;4.85;;;1.83;;
11131;SDS011;5620;53.570;9.718;2023-05-19T08:30:02;8.20;;;1.85;;
11131;SDS011;5620;53.570;9.718;2023-05-19T08:32:28;5.60;;;1.73;;
11131;SDS011;5620;53.570;9.718;2023-05-19T08:34:55;5.47;;;2.00;;
11131;SDS011;5620;53.570;9.718;2023-05-19T08:37:20;6.00;;;2.37;;
11131;SDS011;5620;53.570;9.718;2023-05-19T08:39:47;8.32;;;2.05;;
11131;SDS011;5620;53.570;9.718;2023-05-19T08:42:13;6.10;;;2.00;;
11131;SDS011;5620;53.570;9.718;2023-05-19T08:44:40;4.63;;;2.17;;
11131;SDS011;5620;53.570;9.718;2023-05-19T08:47:08;4.07;;;1.90;;
11131;SDS011;5620;53.570;9.718;2023-05-19T08:49:35;4.22;;;1.55;;
11131;SDS011;5620;53.570;9.718;2023-05-19T08:58:10;4.00;;;1.80;;
11131;SDS011;5620;53.570;9.718;2023-05-19T09:00:39;2.15;;;1.67;;
11131;SDS011;5620;53.570;9.718;2023-05-19T09:03:11;7.22;;;1.90;;
11131;SDS011;5620;53.570;9.718;2023-05-19T09:05:38;2.53;;;1.70;;
11131;SDS011;5620;53.570;9.718;2023-05-19T09:08:06;3.83;;;1.55;;
11131;SDS011;5620;53.570;9.718;2023-05-19T09:10:32;5.47;;;1.77;;
11131;SDS011;5620;53.570;9.718;2023-05-19T09:12:59;3.03;;;1.20;;
11131;SDS011;5620;53.570;9.718;2023-05-19T09:15:26;3.70;;;2.10;;
11131;SDS011;5620;53.570;9.718;2023-05-19T09:18:07;5.80;;;1.73;;
11131;SDS011;5620;53.570;9.718;2023-05-19T09:20:38;4.60;;;1.48;;
11131;SDS011;5620;53.570;9.718;2023-05-19T09:23:05;9.85;;;1.85;;
11131;SDS011;5620;53.570;9.718;2023-05-19T09:26:00;3.83;;;1.20;;
11131;SDS011;5620;53.570;9.718;2023-05-19T09:31:11;8.02;;;1.55;;
11131;SDS011;5620;53.570;9.718;2023-05-19T09:33:39;4.82;;;1.58;;
11131;SDS011;5620;53.570;9.718;2023-05-19T09:36:06;7.55;;;1.95;;
11131;SDS011;5620;53.570;9.718;2023-05-19T09:38:33;4.83;;;1.27;;
11131;SDS011;5620;53.570;9.718;2023-05-19T09:40:59;4.32;;;1.55;;
11131;SDS011;5620;53.570;9.718;2023-05-19T09:43:27;2.78;;;1.58;;
11131;SDS011;5620;53.570;9.718;2023-05-19T09:45:58;8.57;;;2.78;;
11131;SDS011;5620;53.570;9.718;2023-05-19T09:48:29;8.87;;;1.87;;
11131;SDS011;5620;53.570;9.718;2023-05-19T09:50:56;4.88;;;1.63;;
11131;SDS011;5620;53.570;9.718;2023-05-19T09:53:23;17.33;;;2.53;;
11131;SDS011;5620;53.570;9.718;2023-05-19T09:55:49;14.83;;;3.17;;
11131;SDS011;5620;53.570;9.718;2023-05-19T09:58:20;6.60;;;1.80;;
11131;SDS011;5620;53.570;9.718;2023-05-19T10:00:46;5.03;;;1.75;;
11131;SDS011;5620;53.570;9.718;2023-05-19T10:03:13;2.77;;;1.07;;
11131;SDS011;5620;53.570;9.718;2023-05-19T10:05:41;5.82;;;2.10;;
11131;SDS011;5620;53.570;9.718;2023-05-19T10:08:13;5.10;;;1.63;;
11131;SDS011;5620;53.570;9.718;2023-05-19T10:10:40;4.72;;;1.42;;
11131;SDS011;5620;53.570;9.718;2023-05-19T10:13:10;8.18;;;1.02;;
11131;SDS011;5620;53.570;9.718;2023-05-19T10:15:38;4.93;;;1.47;;
11131;SDS011;5620;53.570;9.718;2023-05-19T10:18:08;9.23;;;1.05;;
11131;SDS011;5620;53.570;9.718;2023-05-19T10:20:35;2.97;;;1.17;;
11131;SDS011;5620;53.570;9.718;2023-05-19T10:23:08;7.32;;;1.40;;
11131;SDS011;5620;53.570;9.718;2023-05-19T10:25:34;5.63;;;1.40;;
11131;SDS011;5620;53.570;9.718;2023-05-19T10:30:30;9.60;;;1.00;;
11131;SDS011;5620;53.570;9.718;2023-05-19T10:33:00;6.63;;;1.63;;
11131;SDS011;5620;53.570;9.718;2023-05-19T10:35:32;3.58;;;1.60;;
11131;SDS011;5620;53.570;9.718;2023-05-19T10:46:12;6.00;;;1.50;;
11131;SDS011;5620;53.570;9.718;2023-05-19T10:48:45;6.13;;;1.10;;
11131;SDS011;5620;53.570;9.718;2023-05-19T10:51:13;4.43;;;1.58;;
11131;SDS011;5620;53.570;9.718;2023-05-19T10:53:41;4.87;;;1.20;;
11131;SDS011;5620;53.570;9.718;2023-05-19T10:56:09;7.70;;;1.25;;
11131;SDS011;5620;53.570;9.718;2023-05-19T10:58:35;7.55;;;1.13;;
11131;SDS011;5620;53.570;9.718;2023-05-19T11:01:17;3.22;;;1.35;;
11131;SDS011;5620;53.570;9.718;2023-05-19T11:03:47;4.97;;;1.42;;
11131;SDS011;5620;53.570;9.718;2023-05-19T11:06:17;6.37;;;1.73;;
11131;SDS011;5620;53.570;9.718;2023-05-19T11:11:50;5.85;;;2.15;;
11131;SDS011;5620;53.570;9.718;2023-05-19T11:14:22;3.97;;;1.10;;
11131;SDS011;5620;53.570;9.718;2023-05-19T11:16:55;3.63;;;1.27;;
11131;SDS011;5620;53.570;9.718;2023-05-19T11:19:29;3.40;;;1.37;;
11131;SDS011;5620;53.570;9.718;2023-05-19T11:22:13;5.25;;;1.20;;
11131;SDS011;5620;53.570;9.718;2023-05-19T11:27:26;3.63;;;0.90;;
11131;SDS011;5620;53.570;9.718;2023-05-19T11:30:11;2.55;;;0.98;;
11131;SDS011;5620;53.570;9.718;2023-05-19T11:32:40;5.03;;;1.40;;
11131;SDS011;5620;53.570;9.718;2023-05-19T11:35:07;3.03;;;1.00;;
11131;SDS011;5620;53.570;9.718;2023-05-19T11:37:35;2.15;;;0.75;;
11131;SDS011;5620;53.570;9.718;2023-05-19T11:40:07;4.50;;;1.23;;
11131;SDS011;5620;53.570;9.718;2023-05-19T11:42:34;4.85;;;1.38;;
11131;SDS011;5620;53.570;9.718;2023-05-19T11:45:01;6.40;;;0.93;;
11131;SDS011;5620;53.570;9.718;2023-05-19T11:47:29;3.95;;;1.13;;
11131;SDS011;5620;53.570;9.718;2023-05-19T11:49:56;4.72;;;1.15;;
11131;SDS011;5620;53.570;9.718;2023-05-19T11:52:24;3.53;;;1.00;;
11131;SDS011;5620;53.570;9.718;2023-05-19T11:54:52;3.30;;;1.10;;
11131;SDS011;5620;53.570;9.718;2023-05-19T11:57:19;6.72;;;1.20;;
11131;SDS011;5620;53.570;9.718;2023-05-19T11:59:47;2.60;;;1.20;;
11131;SDS011;5620;53.570;9.718;2023-05-19T12:02:16;3.55;;;0.75;;
11131;SDS011;5620;53.570;9.718;2023-05-19T12:04:49;6.67;;;1.57;;
11131;SDS011;5620;53.570;9.718;2023-05-19T12:07:25;3.92;;;1.13;;
11131;SDS011;5620;53.570;9.718;2023-05-19T12:09:53;5.25;;;1.00;;
11131;SDS011;5620;53.570;9.718;2023-05-19T12:12:21;1.88;;;0.70;;
11131;SDS011;5620;53.570;9.718;2023-05-19T12:14:51;8.68;;;1.25;;
11131;SDS011;5620;53.570;9.718;2023-05-19T12:17:19;5.73;;;1.30;;
11131;SDS011;5620;53.570;9.718;2023-05-19T12:19:46;8.25;;;0.90;;
11131;SDS011;5620;53.570;9.718;2023-05-19T12:22:14;7.47;;;1.15;;
11131;SDS011;5620;53.570;9.718;2023-05-19T12:24:42;4.38;;;1.15;;
11131;SDS011;5620;53.570;9.718;2023-05-19T12:27:16;2.80;;;1.00;;
11131;SDS011;5620;53.570;9.718;2023-05-19T12:29:47;3.10;;;0.70;;
11131;SDS011;5620;53.570;9.718;2023-05-19T12:32:25;3.80;;;1.00;;
11131;SDS011;5620;53.570;9.718;2023-05-19T12:35:11;4.22;;;0.80;;
11131;SDS011;5620;53.570;9.718;2023-05-19T12:37:40;4.35;;;1.27;;
11131;SDS011;5620;53.570;9.718;2023-05-19T12:40:08;7.22;;;2.85;;
11131;SDS011;5620;53.570;9.718;2023-05-19T12:42:42;5.33;;;1.77;;
11131;SDS011;5620;53.570;9.718;2023-05-19T12:45:09;3.60;;;1.98;;
11131;SDS011;5620;53.570;9.718;2023-05-19T12:47:35;3.72;;;1.30;;
11131;SDS011;5620;53.570;9.718;2023-05-19T12:50:03;4.07;;;2.05;;
11131;SDS011;5620;53.570;9.718;2023-05-19T12:52:48;4.78;;;1.60;;
11131;SDS011;5620;53.570;9.718;2023-05-19T12:55:16;7.70;;;1.67;;
11131;SDS011;5620;53.570;9.718;2023-05-19T12:57:43;2.00;;;1.23;;
11131;SDS011;5620;53.570;9.718;2023-05-19T13:00:16;3.58;;;0.95;;
11131;SDS011;5620;53.570;9.718;2023-05-19T13:05:28;3.03;;;1.30;;
11131;SDS011;5620;53.570;9.718;2023-05-19T13:08:17;3.03;;;1.30;;
11131;SDS011;5620;53.570;9.718;2023-05-19T13:10:46;5.78;;;0.93;;
11131;SDS011;5620;53.570;9.718;2023-05-19T13:13:12;3.00;;;0.82;;
11131;SDS011;5620;53.570;9.718;2023-05-19T13:15:44;4.45;;;0.70;;
11131;SDS011;5620;53.570;9.718;2023-05-19T13:18:12;4.45;;;0.73;;
11131;SDS011;5620;53.570;9.718;2023-05-19T13:20:39;4.17;;;1.00;;
11131;SDS011;5620;53.570;9.718;2023-05-19T13:23:10;2.92;;;1.25;;
11131;SDS011;5620;53.570;9.718;2023-05-19T13:25:39;2.88;;;1.30;;
11131;SDS011;5620;53.570;9.718;2023-05-19T13:28:07;1.92;;;0.80;;
11131;SDS011;5620;53.570;9.718;2023-05-19T13:30:35;2.53;;;1.00;;
11131;SDS011;5620;53.570;9.718;2023-05-19T13:33:01;3.40;;;1.10;;
11131;SDS011;5620;53.570;9.718;2023-05-19T13:35:27;4.78;;;0.80;;
11131;SDS011;5620;53.570;9.718;2023-05-19T13:37:54;2.00;;;0.80;;
11131;SDS011;5620;53.570;9.718;2023-05-19T13:40:20;2.83;;;1.47;;
11131;SDS011;5620;53.570;9.718;2023-05-19T13:42:51;2.72;;;1.45;;
11131;SDS011;5620;53.570;9.718;2023-05-19T13:45:17;2.43;;;0.70;;
11131;SDS011;5620;53.570;9.718;2023-05-19T13:47:45;5.90;;;0.80;;
11131;SDS011;5620;53.570;9.718;2023-05-19T13:50:11;2.92;;;1.10;;
11131;SDS011;5620;53.570;9.718;2023-05-19T13:52:36;17.73;;;1.27;;
11131;SDS011;5620;53.570;9.718;2023-05-19T13:55:05;3.28;;;1.00;;
11131;SDS011;5620;53.570;9.718;2023-05-19T13:57:35;6.10;;;0.93;;
11131;SDS011;5620;53.570;9.718;2023-05-19T14:00:01;3.67;;;1.10;;
11131;SDS011;5620;53.570;9.718;2023-05-19T14:02:27;4.22;;;0.95;;
11131;SDS011;5620;53.570;9.718;2023-05-19T14:04:54;2.30;;;0.63;;
11131;SDS011;5620;53.570;9.718;2023-05-19T14:07:21;3.33;;;1.10;;
11131;SDS011;5620;53.570;9.718;2023-05-19T14:09:50;2.75;;;1.00;;
11131;SDS011;5620;53.570;9.718;2023-05-19T14:12:16;4.82;;;1.42;;
11131;SDS011;5620;53.570;9.718;2023-05-19T14:14:43;7.97;;;1.17;;
11131;SDS011;5620;53.570;9.718;2023-05-19T14:17:10;5.50;;;1.20;;
11131;SDS011;5620;53.570;9.718;2023-05-19T14:19:38;2.50;;;0.85;;
11131;SDS011;5620;53.570;9.718;2023-05-19T14:22:06;2.05;;;1.17;;
11131;SDS011;5620;53.570;9.718;2023-05-19T14:24:33;6.30;;;0.70;;
11131;SDS011;5620;53.570;9.718;2023-05-19T14:27:01;2.13;;;1.00;;
11131;SDS011;5620;53.570;9.718;2023-05-19T14:29:26;6.32;;;1.10;;
11131;SDS011;5620;53.570;9.718;2023-05-19T14:31:54;4.32;;;1.02;;
11131;SDS011;5620;53.570;9.718;2023-05-19T14:34:22;2.40;;;1.00;;
11131;SDS011;5620;53.570;9.718;2023-05-19T14:36:47;4.93;;;1.17;;
11131;SDS011;5620;53.570;9.718;2023-05-19T14:39:14;4.55;;;1.05;;
11131;SDS011;5620;53.570;9.718;2023-05-19T14:41:40;6.32;;;1.50;;
11131;SDS011;5620;53.570;9.718;2023-05-19T14:44:07;1.90;;;0.80;;
11131;SDS011;5620;53.570;9.718;2023-05-19T14:46:32;2.65;;;1.25;;
11131;SDS011;5620;53.570;9.718;2023-05-19T14:48:59;5.38;;;0.95;;
11131;SDS011;5620;53.570;9.718;2023-05-19T14:51:26;2.33;;;1.00;;
11131;SDS011;5620;53.570;9.718;2023-05-19T14:53:51;2.97;;;1.10;;
11131;SDS011;5620;53.570;9.718;2023-05-19T14:56:18;3.80;;;1.10;;
11131;SDS011;5620;53.570;9.718;2023-05-19T14:58:45;8.00;;;1.07;;
11131;SDS011;5620;53.570;9.718;2023-05-19T15:01:12;4.10;;;0.98;;
11131;SDS011;5620;53.570;9.718;2023-05-19T15:03:40;4.05;;;1.45;;
11131;SDS011;5620;53.570;9.718;2023-05-19T15:06:07;6.67;;;1.70;;
11131;SDS011;5620;53.570;9.718;2023-05-19T15:08:36;7.07;;;1.67;;
11131;SDS011;5620;53.570;9.718;2023-05-19T15:11:05;7.88;;;1.08;;
11131;SDS011;5620;53.570;9.718;2023-05-19T15:13:31;3.90;;;0.77;;
11131;SDS011;5620;53.570;9.718;2023-05-19T15:15:58;4.85;;;1.10;;
11131;SDS011;5620;53.570;9.718;2023-05-19T15:18:24;2.80;;;1.27;;
11131;SDS011;5620;53.570;9.718;2023-05-19T15:20:51;2.83;;;0.80;;
11131;SDS011;5620;53.570;9.718;2023-05-19T15:23:16;1.90;;;0.85;;
11131;SDS011;5620;53.570;9.718;2023-05-19T15:25:43;2.10;;;0.90;;
11131;SDS011;5620;53.570;9.718;2023-05-19T15:28:10;2.47;;;0.80;;
11131;SDS011;5620;53.570;9.718;2023-05-19T15:30:37;1.90;;;1.00;;
11131;SDS011;5620;53.570;9.718;2023-05-19T15:33:03;5.57;;;1.00;;
11131;SDS011;5620;53.570;9.718;2023-05-19T15:35:30;4.72;;;0.70;;
11131;SDS011;5620;53.570;9.718;2023-05-19T15:37:56;1.65;;;0.90;;
11131;SDS011;5620;53.570;9.718;2023-05-19T15:40:23;4.63;;;1.20;;
11131;SDS011;5620;53.570;9.718;2023-05-19T15:42:49;3.30;;;1.13;;
11131;SDS011;5620;53.570;9.718;2023-05-19T15:45:15;3.37;;;0.87;;